createdAt,value
2023-01-22T00:02:30.502Z,30
2023-01-22T00:12:38.307Z,30
2023-01-22T00:22:46.098Z,31
2023-01-22T00:32:53.981Z,32
2023-01-22T00:43:01.729Z,32
2023-01-22T00:53:09.710Z,33
2023-01-22T01:03:17.460Z,33
2023-01-22T01:13:25.274Z,34
2023-01-22T01:23:35.461Z,34
2023-01-22T01:33:33.399Z,35
2023-01-22T01:43:41.242Z,36
2023-01-22T01:53:49.203Z,37
2023-01-22T02:03:57.119Z,38
2023-01-22T02:14:04.909Z,38
2023-01-22T02:24:12.809Z,39
2023-01-22T02:34:20.670Z,39
2023-01-22T02:44:29.499Z,40
2023-01-22T02:54:37.403Z,40
2023-01-22T03:04:45.212Z,40
2023-01-22T03:14:53.218Z,41
2023-01-22T03:25:01.609Z,42
2023-01-22T03:35:09.463Z,43
2023-01-22T03:45:17.323Z,43
2023-01-22T03:55:25.258Z,43
2023-01-22T04:05:33.405Z,42
2023-01-22T04:15:41.371Z,41
2023-01-22T04:25:49.259Z,41
2023-01-22T04:35:57.152Z,41
2023-01-22T04:46:05.012Z,41
2023-01-22T04:56:12.872Z,41
2023-01-22T05:06:20.617Z,40
2023-01-22T05:16:28.594Z,40
2023-01-22T05:26:36.533Z,40
2023-01-22T05:36:46.759Z,39
2023-01-22T05:46:44.747Z,39
2023-01-22T05:56:52.704Z,39
2023-01-22T06:07:00.670Z,40
2023-01-22T06:17:08.937Z,39
2023-01-22T06:27:16.886Z,39
2023-01-22T06:37:25.340Z,38
2023-01-22T06:47:33.445Z,38
2023-01-22T06:57:42.609Z,38
2023-01-22T07:07:50.527Z,38
2023-01-22T07:17:58.663Z,39
2023-01-22T07:28:06.731Z,40
2023-01-22T07:38:14.859Z,41
2023-01-22T07:48:23.071Z,41
2023-01-22T07:58:31.454Z,41
2023-01-22T08:08:39.651Z,38
2023-01-22T08:18:48.016Z,36
2023-01-22T08:28:55.824Z,34
2023-01-22T08:39:02.644Z,33
2023-01-22T08:49:10.642Z,33
2023-01-22T08:59:19.591Z,33
2023-01-22T09:09:26.811Z,35
2023-01-22T09:19:34.624Z,34
2023-01-22T09:29:44.321Z,34
2023-01-22T09:39:52.467Z,33
2023-01-22T09:50:00.521Z,32
2023-01-22T10:00:08.423Z,32
2023-01-22T10:10:16.250Z,32
2023-01-22T10:20:23.426Z,31
2023-01-22T10:30:31.851Z,29
2023-01-22T10:40:40.756Z,29
2023-01-22T10:50:48.771Z,29
2023-01-22T11:00:57.132Z,29
2023-01-22T11:11:06.245Z,29
2023-01-22T11:21:17.193Z,29
2023-01-22T11:31:16.179Z,28
2023-01-22T11:41:24.159Z,29
2023-01-22T11:51:32.114Z,28
2023-01-22T12:01:40.157Z,27
2023-01-22T12:04:51.897Z,27
2023-01-22T12:13:59.875Z,27
2023-01-22T12:24:08.727Z,26
2023-01-22T12:34:08.533Z,25
2023-01-22T12:44:16.667Z,25
2023-01-22T12:54:24.791Z,26
2023-01-22T13:04:33.985Z,24
2023-01-22T13:14:44.153Z,24
2023-01-22T13:24:43.292Z,23
2023-01-22T13:34:51.469Z,25
2023-01-22T13:44:59.484Z,29
2023-01-22T13:55:07.510Z,31
2023-01-22T14:05:16.757Z,31
2023-01-22T14:15:25.981Z,31
2023-01-22T14:35:40.380Z,31
2023-01-22T14:45:33.286Z,28
2023-01-22T14:55:41.299Z,32
2023-01-22T15:05:49.421Z,33
2023-01-22T15:15:57.579Z,33
2023-01-22T15:26:00.659Z,33
2023-01-22T15:36:03.801Z,26
2023-01-22T15:46:18.050Z,32
2023-01-22T15:56:18.600Z,34
2023-01-22T16:06:27.123Z,36
2023-01-22T16:16:35.152Z,36
2023-01-22T16:26:44.373Z,37
2023-01-22T16:36:53.243Z,37
2023-01-22T16:46:54.635Z,37
2023-01-22T16:56:52.434Z,38
2023-01-22T17:07:00.440Z,38
2023-01-22T17:17:08.244Z,38
2023-01-22T17:27:16.357Z,38
2023-01-22T17:37:24.392Z,38
2023-01-22T17:47:32.463Z,38
2023-01-22T17:57:41.438Z,39
2023-01-22T18:07:48.041Z,40
2023-01-22T18:17:56.013Z,40
2023-01-22T18:28:04.206Z,40
2023-01-22T18:38:12.287Z,41
2023-01-22T18:48:20.430Z,41
2023-01-22T18:58:28.248Z,42
2023-01-22T19:08:36.075Z,42
2023-01-22T19:18:43.901Z,40
2023-01-22T19:28:44.611Z,40
2023-01-22T19:38:45.369Z,41
2023-01-22T19:48:54.393Z,42
2023-01-22T19:58:53.225Z,41
2023-01-22T20:09:01.956Z,40
2023-01-22T20:19:10.129Z,38
2023-01-22T20:29:18.084Z,38
2023-01-22T20:39:25.974Z,39
2023-01-22T20:49:35.158Z,38
2023-01-22T20:59:43.340Z,39
2023-01-22T21:09:51.790Z,39
2023-01-22T21:19:59.769Z,40
2023-01-22T21:30:07.809Z,40
2023-01-22T21:40:15.919Z,40
2023-01-22T21:50:23.951Z,41
2023-01-22T22:00:35.147Z,41
2023-01-22T22:10:33.932Z,40
2023-01-22T22:20:44.205Z,40
2023-01-22T22:30:52.450Z,41
2023-01-22T22:41:00.577Z,41
2023-01-22T22:51:08.752Z,41
2023-01-22T23:01:16.900Z,41
2023-01-22T23:11:25.142Z,42
2023-01-22T23:21:33.331Z,42
2023-01-22T23:31:41.362Z,43
2023-01-22T23:41:49.312Z,42
2023-01-22T23:51:57.355Z,43
